Time;durP1;ratioP1;P1;durP2;ratioP2;P2;SDS_P1;SDS_P2;PMS_P1;PMS_P2;Temp;Humidity;BMP_temperature;BMP_pressure;BME280_temperature;BME280_humidity;BME280_pressure;Samples;Min_cycle;Max_cycle;Signal;HPM_P1;HPM_P2
2022/10/16 00:01:10;;;;;;;18.33;6.20;;;;;;;11.45;100.00;100852.91;5055272;28;20025;-63
2022/10/16 00:03:37;;;;;;;18.33;6.40;;;;;;;11.43;100.00;100852.91;5054890;28;20033;-65
2022/10/16 00:06:03;;;;;;;18.60;6.30;;;;;;;11.43;100.00;100854.66;5053120;28;20024;-64
2022/10/16 00:08:28;;;;;;;18.88;6.47;;;;;;;11.38;100.00;100838.75;5051277;28;20087;-63
2022/10/16 00:10:59;;;;;;;17.27;6.05;;;;;;;11.29;100.00;100841.41;5054779;28;20029;-63
2022/10/16 00:13:25;;;;;;;19.10;6.60;;;;;;;11.25;100.00;100837.88;5053745;28;20072;-63
2022/10/16 00:15:50;;;;;;;19.42;6.63;;;;;;;11.22;100.00;100839.63;5054926;28;20502;-63
2022/10/16 00:18:15;;;;;;;18.90;6.65;;;;;;;11.22;100.00;100842.28;5054705;28;20148;-63
2022/10/16 00:20:41;;;;;;;19.25;6.50;;;;;;;11.25;100.00;100844.94;5054725;28;20062;-63
2022/10/16 00:23:06;;;;;;;19.85;6.70;;;;;;;11.22;100.00;100844.94;5055169;28;20025;-63
2022/10/16 00:25:32;;;;;;;20.25;6.68;;;;;;;11.19;100.00;100844.94;5054924;28;20375;-63
2022/10/16 00:27:59;;;;;;;19.65;6.50;;;;;;;11.19;100.00;100839.63;5054573;28;20032;-62
2022/10/16 00:30:26;;;;;;;17.95;6.03;;;;;;;11.15;100.00;100852.88;5054675;28;20021;-63
2022/10/16 00:32:52;;;;;;;18.80;6.30;;;;;;;11.19;100.00;100844.94;5054597;28;20052;-63
2022/10/16 00:35:17;;;;;;;18.48;6.32;;;;;;;11.12;100.00;100839.59;5054379;28;20061;-62
2022/10/16 00:37:43;;;;;;;18.27;6.05;;;;;;;11.13;100.00;100838.72;5054578;28;20111;-63
2022/10/16 00:40:09;;;;;;;19.27;6.20;;;;;;;11.11;100.00;100847.53;5054095;28;20077;-63
2022/10/16 00:42:34;;;;;;;18.23;6.00;;;;;;;11.11;100.00;100851.09;5054462;28;20383;-62
2022/10/16 00:44:59;;;;;;;17.63;5.70;;;;;;;11.17;100.00;100855.50;5054563;28;20017;-63
2022/10/16 00:47:36;;;;;;;17.35;5.80;;;;;;;11.15;100.00;100852.88;5054021;28;20090;-63
2022/10/16 00:50:08;;;;;;;19.27;6.22;;;;;;;11.11;100.00;100856.38;5050790;28;20040;-63
2022/10/16 00:52:34;;;;;;;18.17;5.97;;;;;;;11.05;100.00;100851.03;5053390;28;20090;-63
2022/10/16 00:55:01;;;;;;;17.88;5.78;;;;;;;11.04;100.00;100857.25;5054139;28;20467;-63
2022/10/16 00:57:26;;;;;;;16.92;5.80;;;;;;;11.06;100.00;100850.19;5049859;28;20025;-63
2022/10/16 00:59:53;;;;;;;17.63;5.63;;;;;;;11.02;100.00;100852.81;5054176;28;20168;-63
2022/10/16 01:02:18;;;;;;;18.25;5.88;;;;;;;11.01;100.00;100851.03;5053722;28;20021;-63
2022/10/16 01:04:50;;;;;;;17.50;5.90;;;;;;;11.02;100.00;100853.69;5053814;28;20017;-65
2022/10/16 01:07:25;;;;;;;18.65;6.00;;;;;;;10.95;100.00;100838.69;5053999;28;20111;-65
2022/10/16 01:10:13;;;;;;;18.25;6.00;;;;;;;10.95;100.00;100841.31;5053809;28;20063;-65
2022/10/16 01:12:48;;;;;;;17.23;5.60;;;;;;;10.92;100.00;100841.31;5051269;28;20020;-65
2022/10/16 01:15:31;;;;;;;17.70;5.95;;;;;;;10.89;100.00;100843.94;5054035;28;20081;-66
2022/10/16 01:17:59;;;;;;;16.77;5.70;;;;;;;10.84;100.00;100843.06;5049801;28;20021;-65
2022/10/16 01:20:37;;;;;;;17.85;6.00;;;;;;;10.82;100.00;100851.00;5053587;28;20025;-66
2022/10/16 01:23:27;;;;;;;16.95;5.45;;;;;;;10.84;100.00;100846.59;5050480;28;20017;-65
2022/10/16 01:26:23;;;;;;;17.77;5.45;;;;;;;10.88;100.00;100858.94;5053580;28;20029;-65
2022/10/16 01:29:02;;;;;;;17.58;5.78;;;;;;;10.94;100.00;100852.81;5052461;28;20071;-66
2022/10/16 01:31:32;;;;;;;17.27;5.60;;;;;;;10.93;100.00;100856.31;5049351;28;20028;-66
2022/10/16 01:34:09;;;;;;;17.83;5.70;;;;;;;10.91;100.00;100861.59;5049276;28;20033;-66
2022/10/16 01:36:49;;;;;;;16.95;5.70;;;;;;;10.94;100.00;100850.16;5050814;28;20029;-66
2022/10/16 01:39:19;;;;;;;17.63;5.57;;;;;;;10.96;100.00;100851.91;5053119;28;20123;-65
2022/10/16 01:41:50;;;;;;;15.63;5.63;;;;;;;10.94;100.00;100851.03;5053205;28;20258;-65
2022/10/16 01:44:15;;;;;;;17.85;5.70;;;;;;;11.00;100.00;100850.16;5052913;28;20479;-67
2022/10/16 01:46:44;;;;;;;17.85;5.40;;;;;;;11.05;100.00;100855.47;5053420;28;20063;-66
2022/10/16 01:49:11;;;;;;;17.98;5.50;;;;;;;11.03;100.00;100850.16;5053361;28;20029;-65
2022/10/16 01:51:37;;;;;;;16.58;5.10;;;;;;;11.06;100.00;100844.00;5053047;28;20117;-65
2022/10/16 01:54:07;;;;;;;16.67;5.30;;;;;;;11.04;100.00;100846.66;5053467;28;20096;-65
2022/10/16 01:56:34;;;;;;;16.33;4.95;;;;;;;11.09;100.00;100838.72;5053043;28;20024;-64
2022/10/16 01:59:21;;;;;;;18.95;5.28;;;;;;;11.07;100.00;100845.78;5052787;28;20029;-66
2022/10/16 02:01:59;;;;;;;16.35;4.97;;;;;;;11.07;100.00;100838.72;5051738;28;20075;-65
2022/10/16 02:04:29;;;;;;;16.70;4.88;;;;;;;11.06;100.00;100850.19;5052542;28;20025;-64
2022/10/16 02:06:55;;;;;;;16.35;5.00;;;;;;;11.11;100.00;100851.09;5052691;28;20024;-64
2022/10/16 02:09:21;;;;;;;15.45;4.72;;;;;;;11.18;100.00;100854.59;5052668;28;20087;-63
2022/10/16 02:11:46;;;;;;;13.57;4.50;;;;;;;11.21;100.00;100864.31;5052907;28;20028;-63
2022/10/16 02:14:12;;;;;;;14.68;4.60;;;;;;;11.20;100.00;100857.25;5053011;28;20067;-63
2022/10/16 02:16:44;;;;;;;15.45;4.55;;;;;;;11.17;100.00;100858.16;5052595;28;20029;-63
2022/10/16 02:19:10;;;;;;;17.52;4.68;;;;;;;11.15;100.00;100855.50;5052947;28;20082;-63
2022/10/16 02:21:54;;;;;;;15.65;4.40;;;;;;;11.11;100.00;100866.06;5052650;28;20032;-63
2022/10/16 02:24:33;;;;;;;17.27;4.47;;;;;;;11.12;100.00;100847.53;5052829;28;20025;-63
2022/10/16 02:27:38;;;;;;;13.30;4.38;;;;;;;11.04;100.00;100846.66;5048949;28;20146;-63
2022/10/16 02:30:15;;;;;;;15.63;4.50;;;;;;;10.99;100.00;100849.28;5049222;28;20120;-63
2022/10/16 02:32:44;;;;;;;14.57;4.35;;;;;;;10.99;100.00;100848.38;5052453;28;20029;-63
2022/10/16 02:35:10;;;;;;;14.40;4.32;;;;;;;10.91;100.00;100843.09;5052843;28;20033;-63
2022/10/16 02:37:38;;;;;;;16.15;4.53;;;;;;;10.87;100.00;100851.00;5052420;28;20021;-64
2022/10/16 02:40:05;;;;;;;15.75;4.50;;;;;;;10.83;100.00;100860.69;5045557;28;20064;-63
2022/10/16 02:42:39;;;;;;;15.13;4.55;;;;;;;10.82;100.00;100857.16;5051361;28;20052;-63
2022/10/16 02:45:06;;;;;;;13.52;4.15;;;;;;;10.80;100.00;100858.03;5052354;28;20029;-63
2022/10/16 02:47:31;;;;;;;14.40;4.30;;;;;;;10.81;100.00;100860.69;5052232;28;20472;-63
2022/10/16 02:49:57;;;;;;;14.15;4.20;;;;;;;10.81;100.00;100850.09;5052397;28;20032;-63
2022/10/16 02:52:22;;;;;;;13.25;3.90;;;;;;;10.80;100.00;100848.34;5049840;28;20028;-63
2022/10/16 02:54:47;;;;;;;14.90;4.10;;;;;;;10.74;100.00;100845.66;5046806;28;20025;-63
2022/10/16 02:57:13;;;;;;;14.05;4.03;;;;;;;10.74;100.00;100839.50;5052387;28;20029;-63
2022/10/16 02:59:38;;;;;;;13.20;4.03;;;;;;;10.71;100.00;100843.00;5052152;28;20486;-63
2022/10/16 03:02:04;;;;;;;14.85;4.28;;;;;;;10.73;100.00;100857.16;5051132;28;20037;-63
2022/10/16 03:04:29;;;;;;;14.50;4.28;;;;;;;10.70;100.00;100851.81;5052312;28;20033;-63
2022/10/16 03:06:54;;;;;;;15.10;4.28;;;;;;;10.73;100.00;100858.88;5048071;28;20033;-63
2022/10/16 03:09:20;;;;;;;12.40;3.95;;;;;;;10.73;100.00;100865.06;5047345;28;20032;-63
2022/10/16 03:11:45;;;;;;;16.15;4.10;;;;;;;10.70;100.00;100861.53;5052312;28;20113;-63
2022/10/16 03:14:10;;;;;;;13.55;4.03;;;;;;;10.66;100.00;100865.03;5052035;28;20033;-63
2022/10/16 03:16:36;;;;;;;12.32;4.15;;;;;;;10.59;100.00;100853.56;5047436;28;20036;-63
2022/10/16 03:19:01;;;;;;;13.95;3.90;;;;;;;10.62;100.00;100864.13;5054696;28;20488;-63
2022/10/16 03:21:26;;;;;;;12.30;3.88;;;;;;;10.68;100.00;100864.16;5055899;28;20382;-62
2022/10/16 03:23:51;;;;;;;11.60;3.70;;;;;;;10.74;100.00;100873.88;5055872;28;20066;-63
2022/10/16 03:26:17;;;;;;;11.35;3.72;;;;;;;10.76;100.00;100866.81;5055915;28;20117;-63
2022/10/16 03:28:42;;;;;;;14.40;3.90;;;;;;;10.75;100.00;100881.81;5055573;28;20107;-63
2022/10/16 03:31:08;;;;;;;13.43;3.90;;;;;;;10.73;100.00;100886.22;5055668;28;20099;-63
2022/10/16 03:33:33;;;;;;;12.95;3.90;;;;;;;10.72;100.00;100889.75;5055437;28;20387;-63
2022/10/16 03:35:58;;;;;;;11.20;3.70;;;;;;;10.75;100.00;100886.22;5055449;28;20029;-63
2022/10/16 03:38:24;;;;;;;12.90;3.92;;;;;;;10.75;100.00;100889.75;5055511;28;20027;-63
2022/10/16 03:40:49;;;;;;;11.65;3.80;;;;;;;10.71;100.00;100884.44;5055481;28;20029;-64
2022/10/16 03:43:14;;;;;;;12.18;3.70;;;;;;;10.72;100.00;100892.38;5055439;28;20032;-64
2022/10/16 03:45:40;;;;;;;12.13;3.80;;;;;;;10.76;100.00;100898.56;5051773;28;20025;-64
2022/10/16 03:48:05;;;;;;;11.43;3.53;;;;;;;10.75;100.00;100894.16;5055054;28;20017;-65
2022/10/16 03:50:31;;;;;;;12.73;3.85;;;;;;;10.78;100.00;100897.69;5055246;28;20025;-63
2022/10/16 03:52:56;;;;;;;11.73;3.80;;;;;;;10.77;100.00;100893.25;5055438;28;20109;-63
2022/10/16 03:55:21;;;;;;;12.30;3.80;;;;;;;10.75;100.00;100892.41;5055110;28;20049;-63
2022/10/16 03:57:46;;;;;;;12.38;3.90;;;;;;;10.76;100.00;100899.47;5055248;28;20111;-64
2022/10/16 04:00:12;;;;;;;12.90;3.70;;;;;;;10.81;100.00;100900.34;5055144;28;20029;-64
2022/10/16 04:02:38;;;;;;;12.05;3.65;;;;;;;10.86;100.00;100899.47;5054966;28;20059;-65
2022/10/16 04:05:04;;;;;;;12.65;3.72;;;;;;;10.89;100.00;100904.78;5055187;28;20025;-63
2022/10/16 04:07:29;;;;;;;11.15;3.85;;;;;;;10.90;100.00;100902.13;5055208;28;20475;-63
2022/10/16 04:09:54;;;;;;;13.52;3.70;;;;;;;10.86;100.00;100904.78;5055017;28;20475;-63
2022/10/16 04:12:20;;;;;;;13.07;3.80;;;;;;;10.90;100.00;100902.13;5055204;28;20478;-63
2022/10/16 04:14:45;;;;;;;13.70;3.85;;;;;;;10.93;100.00;100909.22;5054868;28;20039;-63
2022/10/16 04:17:10;;;;;;;14.32;3.85;;;;;;;10.93;100.00;100907.44;5055159;28;20084;-63
2022/10/16 04:19:36;;;;;;;12.98;4.00;;;;;;;10.96;100.00;100903.94;5054835;28;20078;-63
2022/10/16 04:22:02;;;;;;;14.43;4.20;;;;;;;10.96;100.00;100904.81;5054697;28;20032;-63
2022/10/16 04:24:27;;;;;;;16.52;4.35;;;;;;;11.03;100.00;100918.94;5054551;28;20108;-64
2022/10/16 04:26:53;;;;;;;13.90;4.20;;;;;;;11.05;100.00;100919.81;5054895;28;20112;-63
2022/10/16 04:29:18;;;;;;;13.13;4.20;;;;;;;11.03;100.00;100918.06;5054464;28;20040;-63
2022/10/16 04:31:43;;;;;;;15.63;4.30;;;;;;;11.06;100.00;100910.16;5054837;28;20025;-64
2022/10/16 04:34:09;;;;;;;15.93;4.50;;;;;;;11.01;100.00;100907.50;5054777;28;20047;-63
2022/10/16 04:36:34;;;;;;;12.52;4.10;;;;;;;11.06;100.00;100912.78;5054381;28;20508;-63
2022/10/16 04:38:59;;;;;;;13.80;4.32;;;;;;;11.10;100.00;100920.75;5054568;28;20045;-63
2022/10/16 04:41:24;;;;;;;14.02;4.15;;;;;;;11.07;100.00;100926.03;5054351;28;20033;-63
2022/10/16 04:43:50;;;;;;;15.55;4.25;;;;;;;11.12;100.00;100933.97;5053430;28;20075;-64
2022/10/16 04:46:15;;;;;;;14.55;4.30;;;;;;;11.07;100.00;100941.91;5054361;28;20029;-64
2022/10/16 04:48:40;;;;;;;14.00;4.35;;;;;;;11.02;100.00;100943.63;5050061;28;20032;-64
2022/10/16 04:51:06;;;;;;;12.45;4.43;;;;;;;10.96;100.00;100939.19;5054019;28;20036;-64
2022/10/16 04:53:31;;;;;;;16.05;4.55;;;;;;;10.98;100.00;100932.16;5054200;28;20049;-63
2022/10/16 04:55:57;;;;;;;13.95;4.40;;;;;;;10.95;100.00;100941.81;5053934;28;20029;-63
2022/10/16 04:58:22;;;;;;;15.73;4.70;;;;;;;10.91;100.00;100943.59;5053854;28;20029;-64
2022/10/16 05:00:48;;;;;;;15.90;4.70;;;;;;;10.92;100.00;100947.09;5054208;28;20025;-64
2022/10/16 05:03:13;;;;;;;17.30;4.68;;;;;;;10.90;100.00;100957.69;5054235;28;20071;-63
2022/10/16 05:05:45;;;;;;;16.50;4.68;;;;;;;10.84;100.00;100959.44;5053706;28;20028;-63
2022/10/16 05:08:13;;;;;;;18.52;4.55;;;;;;;10.84;100.00;100967.38;5050069;28;20025;-63
2022/10/16 05:10:38;;;;;;;18.55;4.63;;;;;;;10.86;100.00;100963.81;5053651;28;20037;-63
2022/10/16 05:13:04;;;;;;;18.05;4.90;;;;;;;10.82;100.00;100970.00;5053682;28;20523;-64
2022/10/16 05:15:29;;;;;;;18.10;4.82;;;;;;;10.79;100.00;100968.22;5053972;28;20032;-63
2022/10/16 05:17:55;;;;;;;16.30;4.68;;;;;;;10.81;100.00;100966.44;5053857;28;20056;-64
2022/10/16 05:20:21;;;;;;;17.35;4.90;;;;;;;10.78;100.00;100966.44;5053787;28;20035;-66
2022/10/16 05:22:47;;;;;;;14.68;4.80;;;;;;;10.79;100.00;100957.66;5046428;28;20104;-64
2022/10/16 05:25:12;;;;;;;15.07;4.60;;;;;;;10.77;100.00;100962.00;5053045;28;20031;-64
2022/10/16 05:27:38;;;;;;;15.48;4.78;;;;;;;10.76;100.00;100970.84;5053773;28;20364;-65
2022/10/16 05:30:03;;;;;;;15.48;4.78;;;;;;;10.75;100.00;100966.44;5053415;28;20032;-64
2022/10/16 05:32:29;;;;;;;18.05;4.95;;;;;;;10.77;100.00;100977.00;5053311;28;20025;-63
2022/10/16 05:34:54;;;;;;;14.07;4.30;;;;;;;10.79;100.00;100977.88;5053551;28;20075;-63
2022/10/16 05:37:19;;;;;;;14.75;4.70;;;;;;;10.77;100.00;100987.59;5048742;28;20067;-64
2022/10/16 05:39:45;;;;;;;15.55;4.50;;;;;;;10.73;100.00;100984.06;5052957;28;20123;-65
2022/10/16 05:42:10;;;;;;;16.27;4.60;;;;;;;10.69;100.00;100979.63;5053606;28;20086;-65
2022/10/16 05:44:35;;;;;;;17.88;4.82;;;;;;;10.76;100.00;100999.03;5053186;28;20059;-65
2022/10/16 05:47:01;;;;;;;17.10;4.65;;;;;;;10.71;100.00;101012.22;5053346;28;20032;-67
2022/10/16 05:49:26;;;;;;;18.25;4.80;;;;;;;10.66;100.00;101011.34;5053418;28;20436;-65
2022/10/16 05:51:51;;;;;;;16.60;4.70;;;;;;;10.61;100.00;101019.19;5053002;28;20025;-65
2022/10/16 05:54:16;;;;;;;15.55;4.80;;;;;;;10.60;100.00;101020.09;5053250;28;20025;-65
2022/10/16 05:56:42;;;;;;;15.55;4.70;;;;;;;10.61;100.00;101027.13;5053380;28;20517;-66
2022/10/16 05:59:07;;;;;;;17.23;4.70;;;;;;;10.59;100.00;101028.03;5052762;28;20032;-65
2022/10/16 06:01:33;;;;;;;14.88;4.40;;;;;;;10.58;100.00;101029.75;5052749;28;20025;-64
2022/10/16 06:03:58;;;;;;;18.73;4.57;;;;;;;10.59;100.00;101034.19;5052991;28;20021;-66
2022/10/16 06:06:26;;;;;;;17.08;4.88;;;;;;;10.54;100.00;101045.59;5052822;28;20025;-65
2022/10/16 06:08:52;;;;;;;17.50;4.82;;;;;;;10.55;100.00;101052.66;5048806;28;20091;-65
2022/10/16 06:11:28;;;;;;;15.93;4.63;;;;;;;10.52;100.00;101058.78;5052993;28;20075;-65
2022/10/16 06:13:59;;;;;;;16.30;4.55;;;;;;;10.54;100.00;101066.75;5049218;28;20545;-65
2022/10/16 06:16:26;;;;;;;16.77;4.72;;;;;;;10.53;100.00;101060.56;5049358;28;20060;-65
2022/10/16 06:18:53;;;;;;;17.98;4.85;;;;;;;10.50;100.00;101062.28;5052810;28;20029;-65
2022/10/16 06:21:21;;;;;;;19.70;4.95;;;;;;;10.43;100.00;101072.81;5051339;28;20025;-64
2022/10/16 06:23:47;;;;;;;18.58;5.28;;;;;;;10.45;100.00;101078.13;5044522;28;20109;-63
2022/10/16 06:26:14;;;;;;;17.70;5.00;;;;;;;10.50;100.00;101080.78;5052729;28;20108;-63
2022/10/16 06:28:40;;;;;;;18.58;5.25;;;;;;;10.54;100.00;101079.97;5052640;28;20052;-64
2022/10/16 06:31:08;;;;;;;17.83;5.18;;;;;;;10.60;100.00;101085.28;5052717;28;20067;-63
2022/10/16 06:33:34;;;;;;;18.45;5.10;;;;;;;10.62;100.00;101076.50;5052999;28;20021;-64
2022/10/16 06:36:08;;;;;;;19.27;5.25;;;;;;;10.60;100.00;101087.94;5052338;28;20107;-64
2022/10/16 06:38:35;;;;;;;16.70;4.95;;;;;;;10.63;100.00;101102.06;5048804;28;20049;-64
2022/10/16 06:41:00;;;;;;;18.95;5.10;;;;;;;10.67;100.00;101097.69;5048326;28;20028;-64
2022/10/16 06:43:26;;;;;;;17.17;4.93;;;;;;;10.69;100.00;101095.97;5052663;28;20391;-63
2022/10/16 06:45:56;;;;;;;17.73;4.90;;;;;;;10.75;100.00;101097.75;5052383;28;20035;-64
2022/10/16 06:48:22;;;;;;;19.25;5.10;;;;;;;10.76;100.00;101110.09;5052222;28;20104;-65
2022/10/16 06:51:21;;;;;;;16.27;4.82;;;;;;;10.81;100.00;101121.59;5054674;28;20032;-64
2022/10/16 06:53:49;;;;;;;16.98;4.80;;;;;;;10.84;100.00;101118.97;5054751;28;20429;-64
2022/10/16 06:56:22;;;;;;;17.15;4.53;;;;;;;10.92;100.00;101125.22;5056541;28;20029;-64
2022/10/16 06:58:48;;;;;;;16.15;4.68;;;;;;;10.94;100.00;101127.88;5056175;28;20460;-64
2022/10/16 07:01:15;;;;;;;16.27;4.72;;;;;;;10.99;100.00;101128.78;5055827;28;20028;-64
2022/10/16 07:03:42;;;;;;;17.00;5.03;;;;;;;11.05;100.00;101123.53;5056292;28;20025;-63
2022/10/16 07:06:09;;;;;;;16.95;4.63;;;;;;;11.12;100.00;101125.34;5056140;28;20025;-63
2022/10/16 07:08:37;;;;;;;18.10;4.63;;;;;;;11.24;100.00;101134.22;5056018;28;20033;-62
2022/10/16 07:11:05;;;;;;;16.40;4.30;;;;;;;11.30;100.00;101139.56;5052294;28;20025;-62
2022/10/16 07:13:33;;;;;;;17.20;4.25;;;;;;;11.33;100.00;101147.53;5042435;28;20029;-63
2022/10/16 07:16:24;;;;;;;15.13;4.38;;;;;;;11.38;100.00;101148.44;5054942;28;20100;-62
2022/10/16 07:18:51;;;;;;;15.35;4.30;;;;;;;11.45;100.00;101150.25;5052737;28;20052;-62
2022/10/16 07:21:21;;;;;;;17.35;4.72;;;;;;;11.51;100.00;101149.41;5056056;28;20049;-62
2022/10/16 07:23:53;;;;;;;16.13;4.38;;;;;;;11.57;100.00;101164.44;5055925;28;20463;-63
2022/10/16 07:26:19;;;;;;;14.85;4.15;;;;;;;11.61;100.00;101160.94;5055704;28;20057;-63
2022/10/16 07:28:44;;;;;;;14.80;4.20;;;;;;;11.67;100.00;101172.41;5055698;28;20071;-63
2022/10/16 07:31:13;;;;;;;16.33;4.18;;;;;;;11.74;100.00;101178.66;5055966;28;20028;-63
2022/10/16 07:33:40;;;;;;;14.23;4.05;;;;;;;11.87;100.00;101179.59;5055582;28;20025;-63
2022/10/16 07:36:06;;;;;;;17.30;4.10;;;;;;;11.97;100.00;101188.47;5055770;28;20021;-63
2022/10/16 07:38:31;;;;;;;12.55;4.00;;;;;;;12.05;100.00;101188.53;5055850;28;20430;-63
2022/10/16 07:41:02;;;;;;;15.20;3.95;;;;;;;12.15;100.00;101193.84;5055453;28;20067;-63
2022/10/16 07:43:27;;;;;;;13.60;4.00;;;;;;;12.28;100.00;101191.25;5055263;28;20037;-63
2022/10/16 07:45:53;;;;;;;14.85;4.18;;;;;;;12.40;100.00;101201.88;5055527;28;20029;-63
2022/10/16 07:48:19;;;;;;;12.52;3.80;;;;;;;12.53;100.00;101202.78;5055170;28;20033;-63
2022/10/16 07:50:45;;;;;;;12.55;3.60;;;;;;;12.58;100.00;101208.09;5055394;28;20485;-63
2022/10/16 07:53:11;;;;;;;12.75;3.80;;;;;;;12.67;100.00;101213.44;5051497;28;20025;-63
2022/10/16 07:55:37;;;;;;;12.80;3.75;;;;;;;12.75;100.00;101222.28;5055226;28;20036;-63
2022/10/16 07:58:02;;;;;;;14.23;3.92;;;;;;;12.77;100.00;101216.97;5055039;28;20021;-63
2022/10/16 08:00:27;;;;;;;16.27;3.90;;;;;;;12.83;100.00;101225.84;5054733;28;20417;-63
2022/10/16 08:02:53;;;;;;;14.77;3.83;;;;;;;12.98;100.00;101227.59;5055326;28;20041;-64
2022/10/16 08:05:18;;;;;;;13.30;3.72;;;;;;;12.95;100.00;101226.72;5055118;28;20100;-66
2022/10/16 08:07:48;;;;;;;12.85;3.72;;;;;;;12.93;100.00;101229.38;5055262;28;20040;-64
2022/10/16 08:10:18;;;;;;;13.13;3.60;;;;;;;12.90;100.00;101240.88;5051292;28;20095;-64
2022/10/16 08:12:43;;;;;;;15.32;3.80;;;;;;;12.95;100.00;101242.66;5051097;28;20570;-64
2022/10/16 08:15:09;;;;;;;15.38;3.92;;;;;;;12.97;100.00;101251.50;5054194;28;20119;-64
2022/10/16 08:17:34;;;;;;;13.63;3.60;;;;;;;13.03;100.00;101255.03;5049375;28;20037;-64
2022/10/16 08:20:00;;;;;;;13.57;3.92;;;;;;;13.06;100.00;101255.03;5054623;28;20025;-64
2022/10/16 08:22:25;;;;;;;11.93;3.50;;;;;;;13.11;100.00;101260.34;5054969;28;20086;-64
2022/10/16 08:24:50;;;;;;;13.02;3.70;;;;;;;13.16;100.00;101268.31;5054601;28;20078;-64
2022/10/16 08:27:16;;;;;;;13.52;3.55;;;;;;;13.20;100.00;101265.66;5054661;28;20025;-64
2022/10/16 08:29:41;;;;;;;15.98;3.90;;;;;;;13.30;100.00;101269.19;5054365;28;20118;-65
2022/10/16 08:32:06;;;;;;;15.55;3.88;;;;;;;13.37;100.00;101270.13;5054702;28;20036;-65
2022/10/16 08:34:31;;;;;;;12.80;3.65;;;;;;;13.37;100.00;101276.31;5054792;28;20028;-64
2022/10/16 08:36:57;;;;;;;13.63;3.80;;;;;;;13.46;100.00;101283.38;5049833;28;20053;-64
2022/10/16 08:39:22;;;;;;;15.15;4.03;;;;;;;13.57;100.00;101280.72;5053382;28;20124;-64
2022/10/16 08:42:12;;;;;;;14.60;3.60;;;;;;;13.73;100.00;101297.50;5054580;28;20472;-64
2022/10/16 08:44:40;;;;;;;14.20;3.95;;;;;;;13.83;100.00;101303.72;5051271;28;20480;-63
2022/10/16 08:47:23;;;;;;;13.60;3.72;;;;;;;13.91;100.00;101302.81;5054262;28;20033;-62
2022/10/16 08:50:13;;;;;;;12.95;3.30;;;;;;;13.98;100.00;101303.69;5054194;28;20033;-63
2022/10/16 08:52:42;;;;;;;13.68;3.53;;;;;;;13.99;100.00;101294.81;5045160;28;20041;-62
2022/10/16 08:55:28;;;;;;;13.07;3.40;;;;;;;14.02;100.00;101296.56;5052071;28;20576;-63
2022/10/16 08:57:53;;;;;;;12.60;3.47;;;;;;;14.06;100.00;101298.34;5051833;28;20488;-63
2022/10/16 09:00:19;;;;;;;12.32;3.20;;;;;;;14.30;100.00;101302.72;5051772;28;20108;-63
2022/10/16 09:03:18;;;;;;;13.90;3.40;;;;;;;14.68;100.00;101306.09;5051900;28;20194;-63
2022/10/16 09:06:02;;;;;;;13.40;3.30;;;;;;;14.70;100.00;101304.31;5051085;28;20043;-63
2022/10/16 09:08:38;;;;;;;12.35;3.15;;;;;;;14.68;100.00;101316.72;5048615;28;20530;-63
2022/10/16 09:11:21;;;;;;;12.30;3.10;;;;;;;14.65;100.00;101317.66;5051685;28;20453;-63
2022/10/16 09:14:23;;;;;;;14.10;3.10;;;;;;;14.65;100.00;101325.63;5047603;28;20469;-63
2022/10/16 09:17:03;;;;;;;12.00;2.85;;;;;;;14.70;100.00;101329.16;5048582;28;20056;-63
2022/10/16 09:19:46;;;;;;;13.20;3.17;;;;;;;14.70;100.00;101321.16;5051669;28;20084;-63
2022/10/16 09:22:16;;;;;;;14.07;3.13;;;;;;;14.80;100.00;101327.31;5047907;28;20444;-63
2022/10/16 09:24:42;;;;;;;12.32;2.80;;;;;;;14.91;100.00;101330.81;5051347;28;20479;-63
2022/10/16 09:27:11;;;;;;;12.98;2.97;;;;;;;15.02;100.00;101330.75;5051359;28;20060;-63
2022/10/16 09:29:37;;;;;;;15.18;2.90;;;;;;;15.12;100.00;101339.56;5052298;28;20045;-63
2022/10/16 09:32:28;;;;;;;12.20;2.70;;;;;;;15.37;100.00;101342.06;5053302;28;20127;-63
2022/10/16 09:34:58;;;;;;;15.68;2.90;;;;;;;15.48;100.00;101346.41;5057408;28;20050;-63
2022/10/16 09:37:25;;;;;;;10.90;2.83;;;;;;;15.80;100.00;101347.94;5053240;28;20029;-63
2022/10/16 09:39:54;;;;;;;14.77;2.90;;;;;;;15.94;100.00;101353.13;5053183;28;20040;-63
2022/10/16 09:42:40;;;;;;;14.30;2.97;;;;;;;15.67;100.00;101339.13;5053826;28;20195;-63
2022/10/16 09:45:20;;;;;;;16.02;3.28;;;;;;;15.91;100.00;101336.28;5053134;28;20441;-63
2022/10/16 09:47:45;;;;;;;16.92;3.08;;;;;;;16.03;100.00;101344.13;5050296;28;20107;-64
2022/10/16 09:50:28;;;;;;;15.77;2.95;;;;;;;16.29;100.00;101342.97;5053098;28;20182;-65
2022/10/16 09:53:12;;;;;;;15.23;3.00;;;;;;;17.27;100.00;101343.50;5051121;28;20040;-65
2022/10/16 09:55:51;;;;;;;14.88;3.08;;;;;;;18.12;100.00;101348.28;5052890;28;20025;-65
2022/10/16 09:58:17;;;;;;;16.42;3.10;;;;;;;19.15;100.00;101358.63;5049786;28;20036;-66
2022/10/16 10:00:50;;;;;;;13.23;2.80;;;;;;;20.24;100.00;101355.91;5053104;28;20032;-64
2022/10/16 10:03:28;;;;;;;12.32;2.67;;;;;;;20.26;100.00;101360.34;5050095;28;20036;-64
2022/10/16 10:05:53;;;;;;;15.02;2.72;;;;;;;19.37;100.00;101355.47;5052907;28;20378;-64
2022/10/16 10:08:19;;;;;;;13.85;2.90;;;;;;;18.92;100.00;101351.13;5052598;28;20025;-65
2022/10/16 10:10:48;;;;;;;14.48;2.83;;;;;;;19.50;100.00;101353.38;5052902;28;20036;-65
2022/10/16 10:13:20;;;;;;;13.27;3.00;;;;;;;20.15;100.00;101357.06;5052765;28;20029;-63
2022/10/16 10:15:45;;;;;;;18.40;2.90;;;;;;;19.96;100.00;101368.28;5049272;28;20486;-63
2022/10/16 10:18:19;;;;;;;16.88;3.00;;;;;;;18.54;100.00;101355.47;5052871;28;20280;-63
2022/10/16 10:20:45;;;;;;;17.73;3.20;;;;;;;17.86;100.00;101358.53;5049312;28;20155;-64
2022/10/16 10:23:21;;;;;;;14.10;2.90;;;;;;;18.78;100.00;101363.91;5052818;28;20479;-64
2022/10/16 10:25:59;;;;;;;18.45;3.30;;;;;;;18.33;100.00;101367.50;5049313;28;20387;-64
2022/10/16 10:28:44;;;;;;;17.60;3.08;;;;;;;19.36;100.00;101375.13;5052617;28;20029;-64
2022/10/16 10:31:16;;;;;;;16.85;3.08;;;;;;;20.52;100.00;101369.47;5048485;28;20479;-65
2022/10/16 10:33:52;;;;;;;18.05;3.00;;;;;;;21.43;100.00;101372.06;5049189;28;20028;-64
2022/10/16 10:36:30;;;;;;;17.17;2.90;;;;;;;21.61;100.00;101385.88;5049912;28;20029;-65
2022/10/16 10:39:07;;;;;;;16.15;3.00;;;;;;;20.40;100.00;101389.44;5049863;28;20056;-64
2022/10/16 10:42:09;;;;;;;18.20;3.03;;;;;;;21.26;100.00;101375.31;5049431;28;20036;-66
2022/10/16 10:44:47;;;;;;;15.70;2.70;;;;;;;21.82;100.00;101385.16;5052702;28;20075;-66
2022/10/16 10:47:34;;;;;;;14.43;2.60;;;;;;;22.68;100.00;101385.72;5052623;28;20025;-65
2022/10/16 10:50:21;;;;;;;17.00;2.90;;;;;;;23.19;93.94;101386.47;5049948;28;20029;-66
2022/10/16 10:52:56;;;;;;;13.93;2.78;;;;;;;23.41;79.78;101399.97;5052462;28;20361;-65
2022/10/16 10:55:38;;;;;;;16.00;3.10;;;;;;;24.14;71.03;101378.94;5044918;28;20025;-65
2022/10/16 10:58:12;;;;;;;15.68;2.90;;;;;;;24.87;63.77;101390.94;5049489;28;20387;-65
2022/10/16 11:00:53;;;;;;;14.20;2.70;;;;;;;24.05;58.91;101398.25;5048931;28;20052;-66
2022/10/16 11:03:56;;;;;;;16.50;2.80;;;;;;;22.84;61.88;101392.28;5052520;28;20100;-66
2022/10/16 11:06:33;;;;;;;16.42;2.95;;;;;;;22.87;60.77;101392.16;5051400;28;20033;-66
2022/10/16 11:09:19;;;;;;;17.15;2.97;;;;;;;23.68;59.60;101395.28;5047820;28;20033;-66
2022/10/16 11:11:51;;;;;;;17.35;2.90;;;;;;;23.23;56.41;101390.81;5050583;28;20080;-66
2022/10/16 11:14:22;;;;;;;15.18;3.00;;;;;;;23.59;54.49;101407.31;5052173;28;20025;-66
2022/10/16 11:17:06;;;;;;;14.48;2.63;;;;;;;24.46;56.44;101393.69;5052211;28;20028;-66
2022/10/16 11:19:41;;;;;;;18.25;3.00;;;;;;;24.10;54.21;101397.09;5048674;28;20029;-65
2022/10/16 11:22:18;;;;;;;16.95;2.90;;;;;;;23.74;52.96;101395.00;5049289;28;20051;-66